sensor_id;sensor_type;location;lat;lon;timestamp;pressure;altitude;pressure_sealevel;temperature;humidity
63439;BME280;49567;48.958;8.294;2023-04-12T00:00:39;99878.94;;;12.42;59.64
63439;BME280;49567;48.958;8.294;2023-04-12T00:03:05;99872.69;;;12.37;60.65
63439;BME280;49567;48.958;8.294;2023-04-12T00:05:31;99867.78;;;12.24;62.17
63439;BME280;49567;48.958;8.294;2023-04-12T00:07:58;99862.88;;;12.16;62.78
63439;BME280;49567;48.958;8.294;2023-04-12T00:10:26;99856.91;;;12.14;63.51
63439;BME280;49567;48.958;8.294;2023-04-12T00:12:51;99848.22;;;12.12;64.08
63439;BME280;49567;48.958;8.294;2023-04-12T00:15:16;99848.75;;;11.99;65.15
63439;BME280;49567;48.958;8.294;2023-04-12T00:17:43;99849.28;;;12.01;65.05
63439;BME280;49567;48.958;8.294;2023-04-12T00:20:08;99838.94;;;11.98;66.02
63439;BME280;49567;48.958;8.294;2023-04-12T00:22:36;99831.06;;;11.96;66.34
63439;BME280;49567;48.958;8.294;2023-04-12T00:25:02;99829.44;;;12.00;66.48
63439;BME280;49567;48.958;8.294;2023-04-12T00:27:27;99824.56;;;11.92;67.07
63439;BME280;49567;48.958;8.294;2023-04-12T00:29:52;99816.69;;;12.01;67.10
63439;BME280;49567;48.958;8.294;2023-04-12T00:32:18;99806.91;;;12.05;67.01
63439;BME280;49567;48.958;8.294;2023-04-12T00:34:43;99800.66;;;12.04;67.66
63439;BME280;49567;48.958;8.294;2023-04-12T00:37:08;99795.78;;;12.06;67.58
63439;BME280;49567;48.958;8.294;2023-04-12T00:39:33;99792.78;;;12.13;67.62
63439;BME280;49567;48.958;8.294;2023-04-12T00:42:03;99780.56;;;12.15;67.84
63439;BME280;49567;48.958;8.294;2023-04-12T00:44:29;99778.69;;;12.21;67.71
63439;BME280;49567;48.958;8.294;2023-04-12T00:46:55;99779.22;;;12.13;68.14
63439;BME280;49567;48.958;8.294;2023-04-12T00:49:20;99782.75;;;11.98;68.74
63439;BME280;49567;48.958;8.294;2023-04-12T00:51:45;99778.91;;;11.84;69.57
63439;BME280;49567;48.958;8.294;2023-04-12T00:54:12;99775.94;;;11.90;69.57
63439;BME280;49567;48.958;8.294;2023-04-12T00:56:38;99771.31;;;11.91;69.85
63439;BME280;49567;48.958;8.294;2023-04-12T00:59:04;99766.91;;;11.70;70.47
63439;BME280;49567;48.958;8.294;2023-04-12T01:01:30;99757.41;;;11.67;70.77
63439;BME280;49567;48.958;8.294;2023-04-12T01:03:56;99761.78;;;11.73;71.02
63439;BME280;49567;48.958;8.294;2023-04-12T01:06:40;99753.94;;;11.97;70.38
63439;BME280;49567;48.958;8.294;2023-04-12T01:12:19;99746.06;;;11.90;70.34
63439;BME280;49567;48.958;8.294;2023-04-12T01:15:09;99739.56;;;11.96;70.03
63439;BME280;49567;48.958;8.294;2023-04-12T01:17:51;99729.25;;;12.04;69.89
63439;BME280;49567;48.958;8.294;2023-04-12T01:20:24;99724.06;;;12.02;69.95
63439;BME280;49567;48.958;8.294;2023-04-12T01:23:14;99720.56;;;11.91;70.60
63439;BME280;49567;48.958;8.294;2023-04-12T01:28:31;99703.19;;;11.98;70.63
63439;BME280;49567;48.958;8.294;2023-04-12T01:31:00;99711.06;;;11.94;70.68
63439;BME280;49567;48.958;8.294;2023-04-12T01:33:26;99702.09;;;11.78;70.99
63439;BME280;49567;48.958;8.294;2023-04-12T01:35:57;99693.13;;;11.73;71.33
63439;BME280;49567;48.958;8.294;2023-04-12T01:38:23;99684.94;;;11.68;71.64
63439;BME280;49567;48.958;8.294;2023-04-12T01:40:49;99687.97;;;11.81;70.94
63439;BME280;49567;48.958;8.294;2023-04-12T01:43:14;99683.59;;;11.65;71.28
63439;BME280;49567;48.958;8.294;2023-04-12T01:45:40;99678.16;;;11.45;71.98
63439;BME280;49567;48.958;8.294;2023-04-12T01:48:10;99675.97;;;11.42;72.38
63439;BME280;49567;48.958;8.294;2023-04-12T01:51:06;99671.09;;;11.49;72.26
63439;BME280;49567;48.958;8.294;2023-04-12T01:53:59;99665.69;;;11.64;71.69
63439;BME280;49567;48.958;8.294;2023-04-12T01:56:30;99656.44;;;11.60;71.28
63439;BME280;49567;48.958;8.294;2023-04-12T01:58:56;99652.91;;;11.60;71.62
63439;BME280;49567;48.958;8.294;2023-04-12T02:01:23;99649.16;;;11.71;71.43
63439;BME280;49567;48.958;8.294;2023-04-12T02:03:50;99649.13;;;11.76;71.07
63439;BME280;49567;48.958;8.294;2023-04-12T02:06:19;99640.47;;;11.84;71.11
63439;BME280;49567;48.958;8.294;2023-04-12T02:08:45;99624.44;;;11.87;70.77
63439;BME280;49567;48.958;8.294;2023-04-12T02:11:11;99629.31;;;11.90;70.91
63439;BME280;49567;48.958;8.294;2023-04-12T02:13:37;99620.38;;;11.90;70.56
63439;BME280;49567;48.958;8.294;2023-04-12T02:16:02;99616.00;;;11.89;70.74
63439;BME280;49567;48.958;8.294;2023-04-12T02:18:28;99606.00;;;11.84;71.03
63439;BME280;49567;48.958;8.294;2023-04-12T02:20:55;99610.34;;;11.85;70.87
63439;BME280;49567;48.958;8.294;2023-04-12T02:23:20;99604.38;;;11.88;70.78
63439;BME280;49567;48.958;8.294;2023-04-12T02:25:45;99603.81;;;11.91;70.89
63439;BME280;49567;48.958;8.294;2023-04-12T02:28:11;99595.66;;;11.91;70.77
63439;BME280;49567;48.958;8.294;2023-04-12T02:30:37;99581.53;;;11.89;71.10
63439;BME280;49567;48.958;8.294;2023-04-12T02:33:02;99588.34;;;11.87;71.28
63439;BME280;49567;48.958;8.294;2023-04-12T02:35:31;99581.81;;;11.88;71.26
63439;BME280;49567;48.958;8.294;2023-04-12T02:37:57;99573.13;;;11.86;71.13
63439;BME280;49567;48.958;8.294;2023-04-12T02:40:22;99574.78;;;11.82;71.50
63439;BME280;49567;48.958;8.294;2023-04-12T02:42:47;99557.41;;;11.78;71.80
63439;BME280;49567;48.958;8.294;2023-04-12T02:45:13;99562.28;;;11.76;71.77
63439;BME280;49567;48.958;8.294;2023-04-12T02:47:38;99551.97;;;11.73;72.01
63439;BME280;49567;48.958;8.294;2023-04-12T02:50:05;99551.44;;;11.76;71.86
63439;BME280;49567;48.958;8.294;2023-04-12T02:52:31;99543.00;;;11.72;71.67
63439;BME280;49567;48.958;8.294;2023-04-12T02:54:57;99531.38;;;11.72;71.90
63439;BME280;49567;48.958;8.294;2023-04-12T02:57:22;99526.47;;;11.74;72.08
63439;BME280;49567;48.958;8.294;2023-04-12T02:59:52;99516.13;;;11.76;72.19
63439;BME280;49567;48.958;8.294;2023-04-12T03:02:18;99509.91;;;11.75;72.43
63439;BME280;49567;48.958;8.294;2023-04-12T03:04:44;99509.09;;;11.75;72.14
63439;BME280;49567;48.958;8.294;2023-04-12T03:07:12;99508.00;;;11.76;72.39
63439;BME280;49567;48.958;8.294;2023-04-12T03:09:37;99496.59;;;11.79;72.26
63439;BME280;49567;48.958;8.294;2023-04-12T03:12:03;99487.09;;;11.76;72.30
63439;BME280;49567;48.958;8.294;2023-04-12T03:14:28;99484.38;;;11.76;72.54
63439;BME280;49567;48.958;8.294;2023-04-12T03:16:54;99486.28;;;11.76;72.40
63439;BME280;49567;48.958;8.294;2023-04-12T03:19:20;99481.16;;;11.74;72.51
63439;BME280;49567;48.958;8.294;2023-04-12T03:21:46;99470.56;;;11.73;72.67
63439;BME280;49567;48.958;8.294;2023-04-12T03:24:12;99465.41;;;11.71;72.73
63439;BME280;49567;48.958;8.294;2023-04-12T03:26:38;99461.84;;;11.66;72.93
63439;BME280;49567;48.958;8.294;2023-04-12T03:29:03;99447.22;;;11.57;73.58
63439;BME280;49567;48.958;8.294;2023-04-12T03:31:35;99451.06;;;11.56;73.55
63439;BME280;49567;48.958;8.294;2023-04-12T03:34:01;99442.38;;;11.43;73.80
63439;BME280;49567;48.958;8.294;2023-04-12T03:36:26;99429.41;;;11.35;74.50
63439;BME280;49567;48.958;8.294;2023-04-12T03:38:52;99422.88;;;11.31;74.70
63439;BME280;49567;48.958;8.294;2023-04-12T03:41:17;99418.28;;;11.27;75.12
63439;BME280;49567;48.958;8.294;2023-04-12T03:43:43;99416.38;;;11.32;74.99
63439;BME280;49567;48.958;8.294;2023-04-12T03:46:08;99415.28;;;11.33;74.64
63439;BME280;49567;48.958;8.294;2023-04-12T03:48:34;99418.81;;;11.34;74.66
63439;BME280;49567;48.958;8.294;2023-04-12T03:51:00;99413.13;;;11.35;74.72
63439;BME280;49567;48.958;8.294;2023-04-12T03:53:33;99408.25;;;11.27;75.17
63439;BME280;49567;48.958;8.294;2023-04-12T03:55:58;99400.66;;;11.29;75.22
63439;BME280;49567;48.958;8.294;2023-04-12T03:58:23;99397.91;;;11.34;75.09
63439;BME280;49567;48.958;8.294;2023-04-12T04:00:49;99384.91;;;11.26;75.19
63439;BME280;49567;48.958;8.294;2023-04-12T04:03:14;99386.84;;;11.26;75.49
63439;BME280;49567;48.958;8.294;2023-04-12T04:05:40;99383.53;;;11.34;75.27
63439;BME280;49567;48.958;8.294;2023-04-12T04:08:06;99375.94;;;11.41;75.03
63439;BME280;49567;48.958;8.294;2023-04-12T04:10:32;99372.41;;;11.40;75.13
63439;BME280;49567;48.958;8.294;2023-04-12T04:12:58;99371.31;;;11.41;74.96
63439;BME280;49567;48.958;8.294;2023-04-12T04:15:24;99368.91;;;11.35;75.30
63439;BME280;49567;48.958;8.294;2023-04-12T04:17:50;99362.41;;;11.31;75.40
63439;BME280;49567;48.958;8.294;2023-04-12T04:20:15;99365.41;;;11.29;75.64
63439;BME280;49567;48.958;8.294;2023-04-12T04:22:43;99357.78;;;11.31;75.98
63439;BME280;49567;48.958;8.294;2023-04-12T04:25:09;99356.72;;;11.27;75.85
63439;BME280;49567;48.958;8.294;2023-04-12T04:27:38;99358.09;;;11.25;76.03
63439;BME280;49567;48.958;8.294;2023-04-12T04:30:05;99343.16;;;11.27;76.09
63439;BME280;49567;48.958;8.294;2023-04-12T04:32:31;99344.19;;;11.36;75.93
63439;BME280;49567;48.958;8.294;2023-04-12T04:34:58;99337.44;;;11.39;75.85
63439;BME280;49567;48.958;8.294;2023-04-12T04:37:30;99339.59;;;11.37;75.85
63439;BME280;49567;48.958;8.294;2023-04-12T04:39:56;99337.13;;;11.40;76.00
63439;BME280;49567;48.958;8.294;2023-04-12T04:42:22;99342.00;;;11.43;75.94
63439;BME280;49567;48.958;8.294;2023-04-12T04:44:48;99342.56;;;11.45;75.85
63439;BME280;49567;48.958;8.294;2023-04-12T04:47:24;99343.59;;;11.50;75.87
63439;BME280;49567;48.958;8.294;2023-04-12T04:49:49;99345.75;;;11.53;75.59
63439;BME280;49567;48.958;8.294;2023-04-12T04:52:14;99338.44;;;11.53;75.50
63439;BME280;49567;48.958;8.294;2023-04-12T04:54:40;99331.66;;;11.51;75.73
63439;BME280;49567;48.958;8.294;2023-04-12T04:57:05;99326.53;;;11.49;75.50
63439;BME280;49567;48.958;8.294;2023-04-12T04:59:31;99323.81;;;11.49;75.61
63439;BME280;49567;48.958;8.294;2023-04-12T05:01:57;99328.44;;;11.49;75.43
63439;BME280;49567;48.958;8.294;2023-04-12T05:04:22;99328.44;;;11.49;75.65
63439;BME280;49567;48.958;8.294;2023-04-12T05:06:48;99324.34;;;11.51;75.91
63439;BME280;49567;48.958;8.294;2023-04-12T05:09:13;99317.03;;;11.52;75.85
63439;BME280;49567;48.958;8.294;2023-04-12T05:11:38;99316.72;;;11.53;75.50
63439;BME280;49567;48.958;8.294;2023-04-12T05:14:03;99314.84;;;11.54;75.48
63439;BME280;49567;48.958;8.294;2023-04-12T05:16:29;99311.03;;;11.50;75.85
63439;BME280;49567;48.958;8.294;2023-04-12T05:18:54;99290.97;;;11.51;75.63
63439;BME280;49567;48.958;8.294;2023-04-12T05:21:19;99290.72;;;11.52;75.54
63439;BME280;49567;48.958;8.294;2023-04-12T05:23:45;99282.03;;;11.50;75.89
63439;BME280;49567;48.958;8.294;2023-04-12T05:26:11;99273.06;;;11.50;75.95
63439;BME280;49567;48.958;8.294;2023-04-12T05:28:36;99268.19;;;11.46;76.17
63439;BME280;49567;48.958;8.294;2023-04-12T05:31:02;99264.41;;;11.48;76.44
63439;BME280;49567;48.958;8.294;2023-04-12T05:33:28;99257.59;;;11.50;76.55
63439;BME280;49567;48.958;8.294;2023-04-12T05:35:53;99239.16;;;11.52;76.37
63439;BME280;49567;48.958;8.294;2023-04-12T05:38:18;99232.09;;;11.51;76.24
63439;BME280;49567;48.958;8.294;2023-04-12T05:40:43;99233.72;;;11.52;76.27
63439;BME280;49567;48.958;8.294;2023-04-12T05:43:09;99230.22;;;11.46;76.38
63439;BME280;49567;48.958;8.294;2023-04-12T05:45:38;99226.69;;;11.46;76.58
63439;BME280;49567;48.958;8.294;2023-04-12T05:48:04;99221.03;;;11.42;76.56
63439;BME280;49567;48.958;8.294;2023-04-12T05:50:29;99222.66;;;11.43;76.74
63439;BME280;49567;48.958;8.294;2023-04-12T05:52:55;99219.63;;;11.50;76.70
63439;BME280;49567;48.958;8.294;2023-04-12T05:55:20;99218.78;;;11.55;76.59
63439;BME280;49567;48.958;8.294;2023-04-12T05:57:46;99217.41;;;11.57;76.56
63439;BME280;49567;48.958;8.294;2023-04-12T06:00:12;99213.06;;;11.56;76.59
63439;BME280;49567;48.958;8.294;2023-04-12T06:02:40;99213.03;;;11.61;76.75
63439;BME280;49567;48.958;8.294;2023-04-12T06:05:06;99211.97;;;11.62;76.58
63439;BME280;49567;48.958;8.294;2023-04-12T06:07:32;99207.63;;;11.61;76.64
63439;BME280;49567;48.958;8.294;2023-04-12T06:09:57;99214.38;;;11.64;76.80
63439;BME280;49567;48.958;8.294;2023-04-12T06:12:23;99206.53;;;11.62;76.76
63439;BME280;49567;48.958;8.294;2023-04-12T06:14:48;99188.31;;;11.68;76.72
63439;BME280;49567;48.958;8.294;2023-04-12T06:17:13;99187.78;;;11.71;76.63
63439;BME280;49567;48.958;8.294;2023-04-12T06:19:38;99185.03;;;11.66;76.72
63439;BME280;49567;48.958;8.294;2023-04-12T06:22:04;99178.84;;;11.65;76.86
63439;BME280;49567;48.958;8.294;2023-04-12T06:24:29;99177.72;;;11.71;76.85
63439;BME280;49567;48.958;8.294;2023-04-12T06:26:54;99169.78;;;11.80;76.66
63439;BME280;49567;48.958;8.294;2023-04-12T06:29:20;99168.94;;;11.84;76.64
63439;BME280;49567;48.958;8.294;2023-04-12T06:31:45;99155.03;;;11.91;76.56
63439;BME280;49567;48.958;8.294;2023-04-12T06:34:10;99147.13;;;11.94;76.49
63439;BME280;49567;48.958;8.294;2023-04-12T06:36:36;99145.47;;;11.99;76.63
63439;BME280;49567;48.958;8.294;2023-04-12T06:39:02;99130.78;;;12.00;76.55
63439;BME280;49567;48.958;8.294;2023-04-12T06:41:28;99133.00;;;11.98;76.59
63439;BME280;49567;48.958;8.294;2023-04-12T06:43:53;99122.06;;;12.03;76.54
63439;BME280;49567;48.958;8.294;2023-04-12T06:46:25;99118.53;;;12.02;76.96
63439;BME280;49567;48.958;8.294;2023-04-12T06:48:51;99118.00;;;12.05;76.61
63439;BME280;49567;48.958;8.294;2023-04-12T06:51:17;99120.13;;;12.08;76.43
63439;BME280;49567;48.958;8.294;2023-04-12T06:53:42;99103.84;;;12.08;76.60
63439;BME280;49567;48.958;8.294;2023-04-12T06:56:07;99104.69;;;12.04;77.17
63439;BME280;49567;48.958;8.294;2023-04-12T06:58:33;99099.50;;;12.07;77.49
63439;BME280;49567;48.958;8.294;2023-04-12T07:01:08;99106.22;;;12.15;77.25
63439;BME280;49567;48.958;8.294;2023-04-12T07:03:37;99098.75;;;12.25;77.13
63439;BME280;49567;48.958;8.294;2023-04-12T07:06:03;99092.97;;;12.32;76.90
63439;BME280;49567;48.958;8.294;2023-04-12T07:08:29;99093.19;;;12.35;77.09
63439;BME280;49567;48.958;8.294;2023-04-12T07:10:55;99088.81;;;12.39;76.97
63439;BME280;49567;48.958;8.294;2023-04-12T07:13:20;99080.06;;;12.42;76.82
63439;BME280;49567;48.958;8.294;2023-04-12T07:15:47;99074.41;;;12.39;76.76
63439;BME280;49567;48.958;8.294;2023-04-12T07:18:13;99067.88;;;12.40;76.82
63439;BME280;49567;48.958;8.294;2023-04-12T07:20:40;99059.75;;;12.40;76.56
63439;BME280;49567;48.958;8.294;2023-04-12T07:23:05;99048.13;;;12.34;76.90
63439;BME280;49567;48.958;8.294;2023-04-12T07:25:31;99046.72;;;12.37;77.28
63439;BME280;49567;48.958;8.294;2023-04-12T07:27:56;99026.03;;;12.41;77.08
63439;BME280;49567;48.958;8.294;2023-04-12T07:30:21;99017.34;;;12.39;77.51
63439;BME280;49567;48.958;8.294;2023-04-12T07:32:47;99014.88;;;12.42;77.39
63439;BME280;49567;48.958;8.294;2023-04-12T07:35:12;99004.44;;;12.49;77.07
63439;BME280;49567;48.958;8.294;2023-04-12T07:37:38;99009.97;;;12.63;76.98
63439;BME280;49567;48.958;8.294;2023-04-12T07:40:04;99006.81;;;12.75;76.49
63439;BME280;49567;48.958;8.294;2023-04-12T07:42:30;99011.16;;;12.76;76.12
63439;BME280;49567;48.958;8.294;2023-04-12T07:44:55;99014.09;;;12.79;76.63
63439;BME280;49567;48.958;8.294;2023-04-12T07:47:20;99011.09;;;12.81;76.56
63439;BME280;49567;48.958;8.294;2023-04-12T07:49:45;99009.16;;;12.81;76.82
63439;BME280;49567;48.958;8.294;2023-04-12T07:52:11;99009.69;;;12.83;76.73
63439;BME280;49567;48.958;8.294;2023-04-12T07:54:36;99019.16;;;12.86;76.30
63439;BME280;49567;48.958;8.294;2023-04-12T07:57:02;99015.63;;;12.85;76.27
63439;BME280;49567;48.958;8.294;2023-04-12T07:59:28;99015.19;;;12.78;76.92
63439;BME280;49567;48.958;8.294;2023-04-12T08:01:53;99008.66;;;12.79;76.88
63439;BME280;49567;48.958;8.294;2023-04-12T08:04:19;99011.16;;;12.76;77.46
63439;BME280;49567;48.958;8.294;2023-04-12T08:06:44;99020.97;;;12.72;77.32
63439;BME280;49567;48.958;8.294;2023-04-12T08:09:10;98986.47;;;12.72;77.39
63439;BME280;49567;48.958;8.294;2023-04-12T08:11:35;98983.25;;;12.70;77.81
63439;BME280;49567;48.958;8.294;2023-04-12T08:14:00;98980.53;;;12.70;78.00
63439;BME280;49567;48.958;8.294;2023-04-12T08:16:26;98973.59;;;12.78;78.09
63439;BME280;49567;48.958;8.294;2023-04-12T08:18:51;98968.91;;;12.83;77.75
63439;BME280;49567;48.958;8.294;2023-04-12T08:21:17;98973.06;;;12.94;77.44
63439;BME280;49567;48.958;8.294;2023-04-12T08:23:42;98973.44;;;13.07;77.26
63439;BME280;49567;48.958;8.294;2023-04-12T08:26:08;98967.25;;;13.20;77.02
63439;BME280;49567;48.958;8.294;2023-04-12T08:28:33;98963.19;;;13.17;76.39
63439;BME280;49567;48.958;8.294;2023-04-12T08:30:59;98962.41;;;13.17;76.39
63439;BME280;49567;48.958;8.294;2023-04-12T08:33:24;98966.72;;;13.18;76.19
63439;BME280;49567;48.958;8.294;2023-04-12T08:35:50;98968.63;;;13.17;76.14
63439;BME280;49567;48.958;8.294;2023-04-12T08:38:16;98967.25;;;13.20;76.25
63439;BME280;49567;48.958;8.294;2023-04-12T08:40:42;98975.72;;;13.18;76.37
63439;BME280;49567;48.958;8.294;2023-04-12T08:43:08;98972.78;;;13.15;75.94
63439;BME280;49567;48.958;8.294;2023-04-12T08:45:36;98979.13;;;13.10;76.06
63439;BME280;49567;48.958;8.294;2023-04-12T08:48:03;98983.19;;;13.08;76.67
63439;BME280;49567;48.958;8.294;2023-04-12T08:50:29;98970.19;;;13.05;76.48
63439;BME280;49567;48.958;8.294;2023-04-12T08:52:54;98975.41;;;13.01;76.98
63439;BME280;49567;48.958;8.294;2023-04-12T08:55:20;98982.97;;;13.04;77.02
63439;BME280;49567;48.958;8.294;2023-04-12T08:57:46;98987.63;;;13.04;77.01
63439;BME280;49567;48.958;8.294;2023-04-12T09:00:12;98987.47;;;12.95;77.12
63439;BME280;49567;48.958;8.294;2023-04-12T09:02:38;98993.28;;;12.88;77.36
63439;BME280;49567;48.958;8.294;2023-04-12T09:05:07;98991.03;;;12.77;77.69
63439;BME280;49567;48.958;8.294;2023-04-12T09:07:34;98983.97;;;12.76;78.13
63439;BME280;49567;48.958;8.294;2023-04-12T09:09:59;98970.50;;;12.84;77.77
63439;BME280;49567;48.958;8.294;2023-04-12T09:12:25;98966.09;;;12.88;77.57
63439;BME280;49567;48.958;8.294;2023-04-12T09:15:12;98967.03;;;12.97;77.03
63439;BME280;49567;48.958;8.294;2023-04-12T09:17:44;98959.03;;;13.06;77.28
63439;BME280;49567;48.958;8.294;2023-04-12T09:22:41;98948.50;;;13.18;76.90
63439;BME280;49567;48.958;8.294;2023-04-12T09:25:11;98946.59;;;13.19;76.97
63439;BME280;49567;48.958;8.294;2023-04-12T09:30:12;98957.19;;;13.20;77.39
63439;BME280;49567;48.958;8.294;2023-04-12T09:32:38;98953.44;;;13.16;77.78
63439;BME280;49567;48.958;8.294;2023-04-12T09:35:03;98955.41;;;13.11;77.85
63439;BME280;49567;48.958;8.294;2023-04-12T09:37:30;98933.84;;;13.00;78.11
63439;BME280;49567;48.958;8.294;2023-04-12T09:40:00;98946.97;;;13.12;77.88
63439;BME280;49567;48.958;8.294;2023-04-12T09:42:29;98936.94;;;13.26;77.79
63439;BME280;49567;48.958;8.294;2023-04-12T09:44:56;98924.16;;;13.27;77.57
63439;BME280;49567;48.958;8.294;2023-04-12T09:47:21;98935.25;;;13.30;77.36
63439;BME280;49567;48.958;8.294;2023-04-12T09:49:48;98930.59;;;13.31;77.63
63439;BME280;49567;48.958;8.294;2023-04-12T09:52:14;98932.53;;;13.30;77.45
63439;BME280;49567;48.958;8.294;2023-04-12T09:54:45;98929.50;;;13.32;77.21
63439;BME280;49567;48.958;8.294;2023-04-12T09:57:11;98925.06;;;13.36;77.52
63439;BME280;49567;48.958;8.294;2023-04-12T09:59:39;98911.88;;;13.43;77.18
63439;BME280;49567;48.958;8.294;2023-04-12T10:02:15;98908.34;;;13.42;77.30
63439;BME280;49567;48.958;8.294;2023-04-12T10:04:41;98908.56;;;13.46;77.92
63439;BME280;49567;48.958;8.294;2023-04-12T10:07:07;98904.72;;;13.47;77.96
63439;BME280;49567;48.958;8.294;2023-04-12T10:09:39;98904.03;;;13.69;77.33
63439;BME280;49567;48.958;8.294;2023-04-12T10:12:06;98895.13;;;13.77;77.01
63439;BME280;49567;48.958;8.294;2023-04-12T10:14:32;98897.56;;;13.78;76.92
63439;BME280;49567;48.958;8.294;2023-04-12T10:16:59;98895.88;;;13.82;76.84
63439;BME280;49567;48.958;8.294;2023-04-12T10:19:27;98893.72;;;13.93;76.71
63439;BME280;49567;48.958;8.294;2023-04-12T10:21:54;98896.97;;;13.95;76.10
63439;BME280;49567;48.958;8.294;2023-04-12T10:24:21;98882.41;;;13.99;76.17
63439;BME280;49567;48.958;8.294;2023-04-12T10:26:47;98888.19;;;13.98;75.42
63439;BME280;49567;48.958;8.294;2023-04-12T10:31:57;98878.34;;;14.11;75.52
63439;BME280;49567;48.958;8.294;2023-04-12T10:34:28;98874.63;;;14.07;75.83
63439;BME280;49567;48.958;8.294;2023-04-12T10:36:55;98876.97;;;13.99;75.81
63439;BME280;49567;48.958;8.294;2023-04-12T10:39:53;98872.03;;;14.01;76.01
63439;BME280;49567;48.958;8.294;2023-04-12T10:42:27;98855.13;;;14.13;76.23
63439;BME280;49567;48.958;8.294;2023-04-12T10:45:34;98857.34;;;14.25;74.68
63439;BME280;49567;48.958;8.294;2023-04-12T10:48:00;98853.50;;;14.26;74.48
63439;BME280;49567;48.958;8.294;2023-04-12T10:50:29;98864.13;;;14.49;74.83
63439;BME280;49567;48.958;8.294;2023-04-12T10:55:40;98859.25;;;15.04;73.37
63439;BME280;49567;48.958;8.294;2023-04-12T10:58:07;98863.00;;;15.17;72.46
63439;BME280;49567;48.958;8.294;2023-04-12T11:03:20;98844.38;;;14.88;73.44
63439;BME280;49567;48.958;8.294;2023-04-12T11:06:15;98844.13;;;14.76;72.94
63439;BME280;49567;48.958;8.294;2023-04-12T11:08:40;98853.75;;;14.51;72.84
63439;BME280;49567;48.958;8.294;2023-04-12T11:11:18;98834.41;;;14.39;73.73
63439;BME280;49567;48.958;8.294;2023-04-12T11:13:45;98843.16;;;14.50;73.38
63439;BME280;49567;48.958;8.294;2023-04-12T11:16:10;98826.16;;;14.53;73.27
63439;BME280;49567;48.958;8.294;2023-04-12T11:18:38;98831.69;;;14.62;72.76
63439;BME280;49567;48.958;8.294;2023-04-12T11:21:04;98831.19;;;14.82;72.12
63439;BME280;49567;48.958;8.294;2023-04-12T11:23:31;98831.84;;;14.87;71.25
63439;BME280;49567;48.958;8.294;2023-04-12T11:25:57;98821.50;;;14.76;71.10
63439;BME280;49567;48.958;8.294;2023-04-12T11:28:23;98805.03;;;14.81;71.27
63439;BME280;49567;48.958;8.294;2023-04-12T11:30:54;98815.66;;;14.91;70.72
63439;BME280;49567;48.958;8.294;2023-04-12T11:33:52;98811.03;;;14.91;70.04
63439;BME280;49567;48.958;8.294;2023-04-12T11:36:17;98810.81;;;15.19;69.17
63439;BME280;49567;48.958;8.294;2023-04-12T11:38:43;98804.75;;;15.70;68.21
63439;BME280;49567;48.958;8.294;2023-04-12T11:41:10;98804.94;;;16.07;66.20
63439;BME280;49567;48.958;8.294;2023-04-12T11:43:36;98786.63;;;15.91;65.63
63439;BME280;49567;48.958;8.294;2023-04-12T11:46:04;98781.63;;;16.27;65.44
63439;BME280;49567;48.958;8.294;2023-04-12T11:48:31;98780.25;;;17.02;63.70
63439;BME280;49567;48.958;8.294;2023-04-12T11:50:56;98774.72;;;17.10;62.40
63439;BME280;49567;48.958;8.294;2023-04-12T11:53:26;98763.25;;;17.55;61.42
63439;BME280;49567;48.958;8.294;2023-04-12T11:55:55;98790.41;;;18.72;57.44
63439;BME280;49567;48.958;8.294;2023-04-12T11:58:27;98784.44;;;18.17;57.31
63439;BME280;49567;48.958;8.294;2023-04-12T12:00:55;98779.97;;;17.62;58.11
63439;BME280;49567;48.958;8.294;2023-04-12T12:03:22;98778.25;;;17.57;58.42
63439;BME280;49567;48.958;8.294;2023-04-12T12:05:48;98771.88;;;17.36;58.56
63439;BME280;49567;48.958;8.294;2023-04-12T12:08:14;98778.78;;;17.04;58.46
63439;BME280;49567;48.958;8.294;2023-04-12T12:10:40;98773.44;;;16.62;59.62
63439;BME280;49567;48.958;8.294;2023-04-12T12:13:10;98767.16;;;16.44;60.16
63439;BME280;49567;48.958;8.294;2023-04-12T12:15:36;98759.91;;;16.65;60.14
63439;BME280;49567;48.958;8.294;2023-04-12T12:18:01;98743.97;;;16.76;59.33
63439;BME280;49567;48.958;8.294;2023-04-12T12:20:27;98762.47;;;16.70;59.38
63439;BME280;49567;48.958;8.294;2023-04-12T12:22:53;98766.81;;;16.71;59.33
63439;BME280;49567;48.958;8.294;2023-04-12T12:25:18;98749.13;;;16.69;59.17
63439;BME280;49567;48.958;8.294;2023-04-12T12:27:44;98753.19;;;17.09;59.67
63439;BME280;49567;48.958;8.294;2023-04-12T12:30:16;98739.03;;;17.86;57.07
63439;BME280;49567;48.958;8.294;2023-04-12T12:32:42;98763.50;;;18.45;54.86
63439;BME280;49567;48.958;8.294;2023-04-12T12:35:11;98754.19;;;18.25;54.08
63439;BME280;49567;48.958;8.294;2023-04-12T12:37:37;98755.16;;;17.88;55.30
63439;BME280;49567;48.958;8.294;2023-04-12T12:40:04;98757.91;;;17.58;55.96
63439;BME280;49567;48.958;8.294;2023-04-12T12:42:37;98743.50;;;17.41;56.63
63439;BME280;49567;48.958;8.294;2023-04-12T12:45:07;98749.78;;;17.12;57.54
63439;BME280;49567;48.958;8.294;2023-04-12T12:47:33;98751.06;;;17.06;57.74
63439;BME280;49567;48.958;8.294;2023-04-12T12:49:58;98752.88;;;17.02;57.85
63439;BME280;49567;48.958;8.294;2023-04-12T12:52:23;98740.78;;;16.65;58.16
63439;BME280;49567;48.958;8.294;2023-04-12T12:54:48;98742.72;;;16.39;59.53
63439;BME280;49567;48.958;8.294;2023-04-12T12:57:14;98730.50;;;16.28;60.22
63439;BME280;49567;48.958;8.294;2023-04-12T12:59:39;98714.28;;;16.31;60.22
63439;BME280;49567;48.958;8.294;2023-04-12T13:02:05;98723.09;;;16.37;60.14
63439;BME280;49567;48.958;8.294;2023-04-12T13:04:31;98712.34;;;16.32;60.00
63439;BME280;49567;48.958;8.294;2023-04-12T13:06:56;98723.91;;;16.46;59.77
63439;BME280;49567;48.958;8.294;2023-04-12T13:09:21;98711.97;;;17.35;58.62
63439;BME280;49567;48.958;8.294;2023-04-12T13:11:47;98710.94;;;18.76;54.97
63439;BME280;49567;48.958;8.294;2023-04-12T13:14:12;98698.03;;;19.61;53.13
63439;BME280;49567;48.958;8.294;2023-04-12T13:16:37;98701.38;;;20.65;50.36
63439;BME280;49567;48.958;8.294;2023-04-12T13:19:03;98704.78;;;20.90;49.22